EVV weather

Evansville Regional Airport
Evansville, Indiana, United States

Public forecast

Using degrees Fahrenheit for public forecast. Weather courtesy of forecast.io.

METAR (pilot weather report)

Retrieved 2019/06/25 10:54 UTC (45 minutes ago):

KEVV 251054Z 10SM CLR 17/17 A2999 RMK AO2 SLP151 T01720172

TAF (pilot weather forecast)

Retrieved 2019/06/25 06:22 UTC (5 hours ago):

TAF KEVV 250520Z 2506/2606 VRB05KT P6SM SCT250 FM251800 22009KT P6SM FEW250 FM260100 VRB04KT P6SM FEW250